createdAt,value
2022-09-12T00:01:52.191Z,98209.69
2022-09-12T00:04:19.135Z,98209.03
2022-09-12T00:06:46.185Z,98217.25
2022-09-12T00:09:14.315Z,98217.31
2022-09-12T00:11:43.841Z,98218.28
2022-09-12T00:14:15.498Z,98221.13
2022-09-12T00:16:43.328Z,98219.63
2022-09-12T00:19:10.798Z,98223.94
2022-09-12T00:21:39.309Z,98225.53
2022-09-12T00:24:06.571Z,98221.31
2022-09-12T00:26:33.877Z,98219.91
2022-09-12T00:29:00.913Z,98224.91
2022-09-12T00:31:28.512Z,98221.81
2022-09-12T00:33:57.975Z,98217.44
2022-09-12T00:36:26.221Z,98220.09
2022-09-12T00:38:54.759Z,98212.44
2022-09-12T00:41:25.802Z,98214.94
2022-09-12T00:43:56.060Z,98210.75
2022-09-12T00:46:47.560Z,98214.25
2022-09-12T00:49:23.253Z,98211.41
2022-09-12T00:51:57.609Z,98210.47
2022-09-12T00:54:30.333Z,98204.44
2022-09-12T00:57:01.698Z,98202.94
2022-09-12T00:59:44.447Z,98212.44
2022-09-12T01:02:11.902Z,98197.56
2022-09-12T01:04:41.203Z,98204.72
2022-09-12T01:07:08.815Z,98201.41
2022-09-12T01:09:38.016Z,98196.41
2022-09-12T01:12:06.124Z,98198.91
2022-09-12T01:14:32.951Z,98200.56
2022-09-12T01:16:59.919Z,98198.03
2022-09-12T01:19:32.961Z,98212.19
2022-09-12T01:22:27.746Z,98221.06
2022-09-12T01:25:16.057Z,98217.56
2022-09-12T01:28:10.549Z,98221.91
2022-09-12T01:30:45.682Z,98223.78
2022-09-12T01:33:30.903Z,98231.63
2022-09-12T01:36:03.847Z,98222.19
2022-09-12T01:38:38.360Z,98224.91
2022-09-12T01:41:20.117Z,98220.75
2022-09-12T01:44:09.758Z,98215.13
2022-09-12T01:46:49.329Z,98214.53
2022-09-12T01:49:19.961Z,98209.44
2022-09-12T01:52:03.095Z,98202.75
2022-09-12T01:54:40.477Z,98199.47
2022-09-12T01:57:25.721Z,98210.94
2022-09-12T01:59:58.718Z,98201.97
2022-09-12T02:02:33.125Z,98198.63
2022-09-12T02:05:15.129Z,98208.31
2022-09-12T02:07:49.947Z,98210.84
2022-09-12T02:10:24.042Z,98204.53
2022-09-12T02:12:59.738Z,98211.41
2022-09-12T02:15:56.009Z,98205.28
2022-09-12T02:18:27.361Z,98217.38
2022-09-12T02:20:56.418Z,98215.66
2022-09-12T02:23:27.826Z,98211.53
2022-09-12T02:26:17.199Z,98211.41
2022-09-12T02:28:44.103Z,98211.34
2022-09-12T02:31:23.253Z,98212.09
2022-09-12T02:34:09.113Z,98208.03
2022-09-12T02:36:46.702Z,98217.66
2022-09-12T02:39:13.675Z,98208.69
2022-09-12T02:41:40.732Z,98208.63
2022-09-12T02:44:07.604Z,98214.81
2022-09-12T02:46:42.768Z,98216.69
2022-09-12T02:49:10.651Z,98203.78
2022-09-12T02:51:38.577Z,98218.69
2022-09-12T02:54:07.565Z,98214.34
2022-09-12T02:56:35.069Z,98210.84
2022-09-12T02:59:14.898Z,98204.91
2022-09-12T03:02:02.626Z,98196.50
2022-09-12T03:04:47.952Z,98208.84
2022-09-12T03:07:46.206Z,98209.81
2022-09-12T03:10:15.920Z,98208.97
2022-09-12T03:13:07.405Z,98221.28
2022-09-12T03:15:34.239Z,98209.69
2022-09-12T03:18:28.623Z,98216.78
2022-09-12T03:21:13.933Z,98215.94
2022-09-12T03:23:51.626Z,98224.81
2022-09-12T03:26:37.152Z,98218.66
2022-09-12T03:29:07.839Z,98222.81
2022-09-12T03:31:34.841Z,98214.06
2022-09-12T03:34:01.784Z,98210.66
2022-09-12T03:36:30.103Z,98215.19
2022-09-12T03:38:56.986Z,98220.53
2022-09-12T03:41:24.140Z,98221.41
2022-09-12T03:43:51.491Z,98223.94
2022-09-12T03:46:18.423Z,98236.97
2022-09-12T03:48:45.377Z,98228.00
2022-09-12T03:51:12.650Z,98234.97
2022-09-12T03:53:39.629Z,98232.53
2022-09-12T03:56:10.891Z,98223.78
2022-09-12T03:58:38.757Z,98233.47
2022-09-12T04:01:14.406Z,98227.34
2022-09-12T04:03:43.454Z,98236.84
2022-09-12T04:06:11.808Z,98236.22
2022-09-12T04:08:38.899Z,98237.34
2022-09-12T04:11:14.175Z,98239.22
2022-09-12T04:13:43.665Z,98246.09
2022-09-12T04:16:11.895Z,98246.84
2022-09-12T04:18:39.081Z,98242.59
2022-09-12T04:21:07.915Z,98238.94
2022-09-12T04:23:35.730Z,98242.41
2022-09-12T04:26:06.518Z,98251.56
2022-09-12T04:28:35.145Z,98247.88
2022-09-12T04:31:05.057Z,98248.91
2022-09-12T04:33:32.122Z,98245.59
2022-09-12T04:36:07.041Z,98254.47
2022-09-12T04:38:35.375Z,98251.00
2022-09-12T04:41:11.276Z,98250.28
2022-09-12T04:43:38.274Z,98266.91
2022-09-12T04:46:09.083Z,98264.91
2022-09-12T04:48:36.051Z,98265.53
2022-09-12T04:51:12.153Z,98261.94
2022-09-12T04:53:39.809Z,98277.00
2022-09-12T04:56:09.825Z,98275.31
2022-09-12T04:58:38.711Z,98270.81
2022-09-12T05:01:06.148Z,98292.56
2022-09-12T05:03:34.350Z,98276.72
2022-09-12T05:06:05.251Z,98287.22
2022-09-12T05:08:33.160Z,98275.81
2022-09-12T05:11:08.256Z,98273.44
2022-09-12T05:13:35.212Z,98280.25
2022-09-12T05:16:03.838Z,98287.22
2022-09-12T05:18:35.728Z,98288.53
2022-09-12T05:21:05.624Z,98295.41
2022-09-12T05:23:34.041Z,98283.19
2022-09-12T05:26:01.622Z,98297.78
2022-09-12T05:28:36.737Z,98293.19
2022-09-12T05:31:12.407Z,98299.03
2022-09-12T05:33:41.434Z,98305.00
2022-09-12T05:36:12.525Z,98303.56
2022-09-12T05:38:39.732Z,98299.22
2022-09-12T05:41:16.639Z,98301.94
2022-09-12T05:43:46.194Z,98297.72
2022-09-12T05:46:18.947Z,98311.25
2022-09-12T05:48:47.577Z,98298.81
2022-09-12T05:51:20.562Z,98303.06
2022-09-12T05:53:52.874Z,98293.66
2022-09-12T05:56:23.375Z,98299.66
2022-09-12T05:58:57.702Z,98302.31
2022-09-12T06:01:27.303Z,98297.63
2022-09-12T06:03:55.449Z,98296.88
2022-09-12T06:06:24.527Z,98300.44
2022-09-12T06:08:53.824Z,98290.63
2022-09-12T06:11:23.294Z,98287.41
2022-09-12T06:13:52.993Z,98291.84
2022-09-12T06:16:22.915Z,98294.31
2022-09-12T06:18:52.434Z,98293.94
2022-09-12T06:21:20.608Z,98296.22
2022-09-12T06:23:48.221Z,98295.34
2022-09-12T06:26:17.556Z,98296.13
2022-09-12T06:28:45.722Z,98305.66
2022-09-12T06:31:18.595Z,98305.47
2022-09-12T06:33:49.269Z,98312.63
2022-09-12T06:36:22.254Z,98319.72
2022-09-12T06:39:03.829Z,98320.75
2022-09-12T06:41:32.033Z,98315.47
2022-09-12T06:44:00.418Z,98327.66
2022-09-12T06:46:27.876Z,98321.31
2022-09-12T06:48:59.675Z,98336.22
2022-09-12T06:51:28.269Z,98332.66
2022-09-12T06:53:57.234Z,98344.34
2022-09-12T06:56:26.636Z,98341.88
2022-09-12T06:58:56.393Z,98342.72
2022-09-12T07:01:27.098Z,98342.25
2022-09-12T07:03:57.054Z,98336.00
2022-09-12T07:06:31.741Z,98349.03
2022-09-12T07:08:59.862Z,98342.13
2022-09-12T07:11:31.719Z,98348.09
2022-09-12T07:14:00.103Z,98347.16
2022-09-12T07:16:27.517Z,98350.94
2022-09-12T07:18:59.832Z,98348.81
2022-09-12T07:21:27.824Z,98358.44
2022-09-12T07:24:00.741Z,98357.59
2022-09-12T07:26:29.200Z,98357.75
2022-09-12T07:29:18.610Z,98362.31
2022-09-12T07:31:45.476Z,98364.81
2022-09-12T07:34:13.005Z,98369.75
2022-09-12T07:36:39.915Z,98374.00
2022-09-12T07:39:06.943Z,98376.72
2022-09-12T07:41:34.174Z,98375.22
2022-09-12T07:44:03.310Z,98374.19
2022-09-12T07:46:31.713Z,98382.97
2022-09-12T07:49:01.152Z,98386.38
2022-09-12T07:51:30.021Z,98385.78
2022-09-12T07:53:57.723Z,98392.75
2022-09-12T07:56:30.134Z,98404.28
2022-09-12T07:58:59.069Z,98399.75
2022-09-12T08:01:26.636Z,98405.50
2022-09-12T08:03:57.278Z,98406.88
2022-09-12T08:06:25.023Z,98401.22
2022-09-12T08:08:54.243Z,98406.13
2022-09-12T08:11:23.076Z,98409.47
2022-09-12T08:13:55.212Z,98393.13
2022-09-12T08:16:25.675Z,98415.03
2022-09-12T08:18:52.711Z,98407.59
2022-09-12T08:21:27.215Z,98409.28
2022-09-12T08:23:57.314Z,98400.50
2022-09-12T08:26:24.882Z,98408.44
2022-09-12T08:28:52.690Z,98401.19
2022-09-12T08:31:21.945Z,98403.06
2022-09-12T08:33:49.075Z,98402.38
2022-09-12T08:36:22.600Z,98398.97
2022-09-12T08:38:53.641Z,98399.94
2022-09-12T08:41:35.201Z,98405.28
2022-09-12T08:44:20.126Z,98406.97
2022-09-12T08:47:05.615Z,98406.81
2022-09-12T08:49:36.913Z,98410.38
2022-09-12T08:52:14.430Z,98414.75
2022-09-12T08:54:44.963Z,98408.63
2022-09-12T08:57:13.030Z,98412.19
2022-09-12T08:59:42.898Z,98413.63
2022-09-12T09:02:31.643Z,98411.63
2022-09-12T09:05:37.517Z,98408.28
2022-09-12T09:08:05.044Z,98425.56
2022-09-12T09:10:47.401Z,98425.38
2022-09-12T09:13:43.087Z,98420.84
2022-09-12T09:16:19.829Z,98424.25
2022-09-12T09:18:48.547Z,98411.69
2022-09-12T09:21:26.746Z,98415.19
2022-09-12T09:24:02.460Z,98428.31
2022-09-12T09:26:38.241Z,98423.72
2022-09-12T09:29:22.755Z,98426.34
2022-09-12T09:31:53.199Z,98434.09
2022-09-12T09:34:30.009Z,98437.19
2022-09-12T09:37:13.908Z,98438.88
2022-09-12T09:39:48.715Z,98444.47
2022-09-12T09:42:24.755Z,98442.84
2022-09-12T09:44:56.005Z,98444.53
2022-09-12T09:47:22.882Z,98450.66
2022-09-12T09:49:49.716Z,98447.66
2022-09-12T09:52:22.529Z,98446.53
2022-09-12T09:54:59.866Z,98448.78
2022-09-12T09:57:38.618Z,98453.63
2022-09-12T10:00:22.240Z,98455.03
2022-09-12T10:03:05.385Z,98460.94
2022-09-12T10:05:35.997Z,98468.47
2022-09-12T10:08:05.165Z,98462.06
2022-09-12T10:10:31.939Z,98462.63
2022-09-12T10:13:24.848Z,98455.56
2022-09-12T10:16:03.961Z,98469.72
2022-09-12T10:18:34.859Z,98459.97
2022-09-12T10:21:03.666Z,98465.75
2022-09-12T10:23:37.155Z,98470.47
2022-09-12T10:26:10.770Z,98468.09
2022-09-12T10:28:40.675Z,98476.78
2022-09-12T10:31:10.605Z,98478.66
2022-09-12T10:33:45.441Z,98480.84
2022-09-12T10:36:13.491Z,98473.94
2022-09-12T10:38:49.669Z,98477.94
2022-09-12T10:41:17.033Z,98474.75
2022-09-12T10:43:44.045Z,98485.69
2022-09-12T10:46:19.690Z,98474.97
2022-09-12T10:48:48.577Z,98484.22
2022-09-12T10:51:28.484Z,98480.13
2022-09-12T10:54:02.141Z,98479.97
2022-09-12T10:56:32.769Z,98490.97
2022-09-12T10:59:27.341Z,98489.47
2022-09-12T11:02:01.293Z,98494.09
2022-09-12T11:04:53.401Z,98493.44
2022-09-12T11:07:40.830Z,98493.53
2022-09-12T11:10:28.117Z,98499.84
2022-09-12T11:13:09.367Z,98505.03
2022-09-12T11:16:07.475Z,98499.84
2022-09-12T11:18:58.138Z,98498.56
2022-09-12T11:21:34.049Z,98505.31
2022-09-12T11:24:09.667Z,98507.03
2022-09-12T11:27:13.615Z,98501.75
2022-09-12T11:29:52.830Z,98506.09
2022-09-12T11:32:28.628Z,98507.72
2022-09-12T11:34:55.954Z,98506.22
2022-09-12T11:37:41.260Z,98508.41
2022-09-12T11:40:20.543Z,98515.03
2022-09-12T11:42:52.018Z,98513.59
2022-09-12T11:45:25.543Z,98515.22
2022-09-12T11:47:57.876Z,98520.59
2022-09-12T11:50:31.034Z,98515.22
2022-09-12T11:53:05.236Z,98513.78
2022-09-12T11:55:51.416Z,98523.50
2022-09-12T11:58:23.443Z,98522.28
2022-09-12T12:00:55.203Z,98516.91
2022-09-12T12:03:41.987Z,98526.31
2022-09-12T12:06:32.055Z,98535.03
2022-09-12T12:08:59.382Z,98534.19
2022-09-12T12:11:36.806Z,98534.25
2022-09-12T12:14:20.799Z,98534.72
2022-09-12T12:16:48.771Z,98536.91
2022-09-12T12:19:15.775Z,98531.22
2022-09-12T12:21:45.037Z,98535.63
2022-09-12T12:24:15.480Z,98528.91
2022-09-12T12:27:04.707Z,98534.34
2022-09-12T12:29:31.746Z,98529.59
2022-09-12T12:31:59.141Z,98528.22
2022-09-12T12:34:30.118Z,98529.31
2022-09-12T12:52:46.833Z,98541.88
2022-09-12T12:55:26.490Z,98548.28
2022-09-12T12:57:54.987Z,98545.09
2022-09-12T13:00:25.365Z,98542.84
2022-09-12T13:03:31.865Z,98549.47
2022-09-12T13:06:05.717Z,98551.84
2022-09-12T13:08:35.484Z,98540.94
2022-09-12T13:11:14.254Z,98550.22
2022-09-12T13:13:53.440Z,98541.41
2022-09-12T13:16:35.741Z,98555.31
2022-09-12T13:19:06.513Z,98541.97
2022-09-12T13:21:33.967Z,98555.63
2022-09-12T13:24:13.066Z,98548.91
2022-09-12T13:26:44.303Z,98557.94
2022-09-12T13:29:11.069Z,98559.72
2022-09-12T13:31:38.526Z,98559.59
2022-09-12T13:34:07.363Z,98562.38
2022-09-12T13:37:08.589Z,98564.28
2022-09-12T13:39:49.898Z,98566.78
2022-09-12T13:42:34.592Z,98560.75
2022-09-12T13:45:04.875Z,98563.31
2022-09-12T13:47:36.702Z,98574.00
2022-09-12T13:50:06.069Z,98564.34
2022-09-12T13:52:36.090Z,98566.91
2022-09-12T13:55:09.142Z,98568.81
2022-09-12T13:57:39.129Z,98562.75
2022-09-12T14:00:24.475Z,98568.13
2022-09-12T14:03:14.775Z,98569.84
2022-09-12T14:05:45.107Z,98566.81
2022-09-12T14:08:15.409Z,98573.25
2022-09-12T14:10:45.107Z,98567.31
2022-09-12T14:13:16.962Z,98565.78
2022-09-12T14:15:47.203Z,98563.31
2022-09-12T14:18:39.153Z,98567.00
2022-09-12T14:21:12.875Z,98565.69
2022-09-12T14:23:45.386Z,98569.38
2022-09-12T14:26:13.967Z,98569.47
2022-09-12T14:28:47.513Z,98573.16
2022-09-12T14:31:15.784Z,98562.63
2022-09-12T14:33:51.176Z,98570.59
2022-09-12T14:36:27.387Z,98570.69
2022-09-12T14:38:59.349Z,98572.56
2022-09-12T14:41:31.052Z,98570.97
2022-09-12T14:44:05.191Z,98571.81
2022-09-12T14:46:34.558Z,98569.94
2022-09-12T14:49:12.471Z,98568.91
2022-09-12T14:52:01.024Z,98570.22
2022-09-12T14:54:30.396Z,98571.75
2022-09-12T14:57:04.351Z,98566.16
2022-09-12T14:59:39.793Z,98573.06
2022-09-12T15:02:24.763Z,98564.19
2022-09-12T15:04:54.620Z,98565.03
2022-09-12T15:07:29.885Z,98570.13
2022-09-12T15:09:59.232Z,98568.31
2022-09-12T15:12:26.444Z,98560.22
2022-09-12T15:14:58.512Z,98567.94
2022-09-12T15:17:25.302Z,98567.94
2022-09-12T15:19:52.373Z,98567.31
2022-09-12T15:22:21.676Z,98570.03
2022-09-12T15:24:48.750Z,98577.44
2022-09-12T15:27:15.897Z,98581.97
2022-09-12T15:29:42.798Z,98583.09
2022-09-12T15:32:22.756Z,98575.50
2022-09-12T15:34:50.094Z,98584.69
2022-09-12T15:37:17.889Z,98591.09
2022-09-12T15:39:46.764Z,98584.44
2022-09-12T15:42:15.489Z,98575.34
2022-09-12T15:44:42.896Z,98581.75
2022-09-12T15:47:13.622Z,98588.09
2022-09-12T15:49:41.107Z,98584.59
2022-09-12T15:52:13.973Z,98582.03
2022-09-12T15:54:41.258Z,98589.97
2022-09-12T15:57:08.491Z,98580.50
2022-09-12T15:59:36.350Z,98595.53
2022-09-12T16:02:03.740Z,98585.16
2022-09-12T16:04:31.795Z,98588.72
2022-09-12T16:06:58.838Z,98592.41
2022-09-12T16:09:25.991Z,98596.72
2022-09-12T16:11:52.984Z,98586.25
2022-09-12T16:14:20.172Z,98588.06
2022-09-12T16:16:54.600Z,98589.84
2022-09-12T16:19:22.249Z,98590.72
2022-09-12T16:21:49.656Z,98591.56
2022-09-12T16:24:16.652Z,98594.19
2022-09-12T16:26:43.574Z,98596.00
2022-09-12T16:29:14.010Z,98600.31
2022-09-12T16:31:40.937Z,98599.38
2022-09-12T16:34:07.877Z,98591.56
2022-09-12T16:36:34.919Z,98595.03
2022-09-12T16:39:01.806Z,98594.19
2022-09-12T16:41:28.938Z,98595.03
2022-09-12T16:43:56.096Z,98596.00
2022-09-12T16:46:31.157Z,98595.22
2022-09-12T16:48:58.905Z,98598.78
2022-09-12T16:51:28.696Z,98597.09
2022-09-12T16:53:56.229Z,98600.78
2022-09-12T16:56:23.917Z,98602.47
2022-09-12T16:58:50.993Z,98605.31
2022-09-12T17:01:21.421Z,98596.78
2022-09-12T17:03:48.926Z,98607.53
2022-09-12T17:06:18.418Z,98599.59
2022-09-12T17:08:50.656Z,98600.56
2022-09-12T17:11:23.822Z,98601.47
2022-09-12T17:14:11.341Z,98596.19
2022-09-12T17:16:48.021Z,98599.88
2022-09-12T17:19:26.405Z,98606.13
2022-09-12T17:21:54.519Z,98606.00
2022-09-12T17:24:21.961Z,98607.03
2022-09-12T17:26:49.490Z,98606.13
2022-09-12T17:29:17.147Z,98609.59
2022-09-12T17:31:44.843Z,98608.84
2022-09-12T17:34:16.421Z,98609.50
2022-09-12T17:36:45.252Z,98607.63
2022-09-12T17:39:13.788Z,98615.53
2022-09-12T17:41:46.097Z,98609.34
2022-09-12T17:44:15.228Z,98612.81
2022-09-12T17:46:43.664Z,98609.22
2022-09-12T17:49:16.877Z,98612.63
2022-09-12T17:51:44.390Z,98614.34
2022-09-12T17:54:16.226Z,98612.47
2022-09-12T17:56:45.577Z,98618.53
2022-09-12T17:59:21.517Z,98618.69
2022-09-12T18:02:07.386Z,98617.84
2022-09-12T18:04:34.698Z,98620.50
2022-09-12T18:07:01.842Z,98618.69
2022-09-12T18:09:29.335Z,98619.47
2022-09-12T18:11:56.736Z,98615.13
2022-09-12T18:14:24.852Z,98615.19
2022-09-12T18:16:52.468Z,98611.78
2022-09-12T18:19:19.822Z,98613.66
2022-09-12T18:21:46.902Z,98609.16
2022-09-12T18:24:13.915Z,98610.19
2022-09-12T18:26:42.827Z,98606.78
2022-09-12T18:29:10.361Z,98619.22
2022-09-12T18:31:37.408Z,98615.72
2022-09-12T18:34:06.017Z,98617.53
2022-09-12T18:36:33.087Z,98617.41
2022-09-12T18:39:00.151Z,98620.94
2022-09-12T18:41:28.991Z,98621.03
2022-09-12T18:44:00.533Z,98623.75
2022-09-12T18:46:29.866Z,98621.88
2022-09-12T18:48:58.120Z,98618.47
2022-09-12T18:51:31.441Z,98610.72
2022-09-12T18:54:01.353Z,98612.31
2022-09-12T18:56:34.403Z,98611.47
2022-09-12T18:59:02.928Z,98615.91
2022-09-12T19:01:32.772Z,98613.28
2022-09-12T19:04:01.147Z,98608.00
2022-09-12T19:06:30.901Z,98610.78
2022-09-12T19:09:00.203Z,98614.19
2022-09-12T19:11:29.936Z,98608.91
2022-09-12T19:13:58.120Z,98608.91
2022-09-12T19:16:27.059Z,98608.91
2022-09-12T19:18:57.693Z,98621.22
2022-09-12T19:21:27.130Z,98618.38
2022-09-12T19:23:58.693Z,98611.47
2022-09-12T19:26:26.147Z,98614.97
2022-09-12T19:28:53.879Z,98611.41
2022-09-12T19:31:21.940Z,98605.09
2022-09-12T19:33:49.973Z,98608.56
2022-09-12T19:36:41.351Z,98604.97
2022-09-12T19:39:08.290Z,98605.94
2022-09-12T19:41:35.948Z,98599.03
2022-09-12T19:44:04.191Z,98600.72
2022-09-12T19:46:31.620Z,98592.78
2022-09-12T19:48:58.493Z,98593.63
2022-09-12T19:51:25.532Z,98594.41
2022-09-12T19:53:53.292Z,98596.19
2022-09-12T19:56:20.666Z,98593.47
2022-09-12T19:58:52.281Z,98594.31
2022-09-12T20:01:25.678Z,98597.91
2022-09-12T20:03:53.955Z,98593.56
2022-09-12T20:06:21.328Z,98587.34
2022-09-12T20:08:48.763Z,98593.47
2022-09-12T20:11:18.199Z,98588.94
2022-09-12T20:13:46.046Z,98590.63
2022-09-12T20:16:20.335Z,98585.28
2022-09-12T20:18:49.516Z,98579.91
2022-09-12T20:21:19.287Z,98578.09
2022-09-12T20:23:46.984Z,98580.75
2022-09-12T20:26:13.892Z,98573.84
2022-09-12T20:28:42.100Z,98577.41
2022-09-12T20:31:13.989Z,98576.66
2022-09-12T20:33:41.534Z,98584.59
2022-09-12T20:36:17.797Z,98571.47
2022-09-12T20:38:49.697Z,98572.41
2022-09-12T20:41:18.860Z,98572.41
2022-09-12T20:43:49.192Z,98574.38
2022-09-12T20:46:20.987Z,98574.47
2022-09-12T20:48:49.472Z,98571.06
2022-09-12T20:51:16.871Z,98570.09
2022-09-12T20:53:43.846Z,98567.56
2022-09-12T20:56:11.070Z,98567.66
2022-09-12T20:58:43.066Z,98573.00
2022-09-12T21:01:12.329Z,98573.69
2022-09-12T21:03:40.204Z,98571.06
2022-09-12T21:06:08.970Z,98568.34
2022-09-12T21:08:37.270Z,98572.59
2022-09-12T21:11:05.611Z,98565.69
2022-09-12T21:13:32.952Z,98572.66
2022-09-12T21:16:04.815Z,98568.16
2022-09-12T21:18:32.698Z,98562.88
2022-09-12T21:20:59.637Z,98569.00
2022-09-12T21:23:28.463Z,98560.97
2022-09-12T21:25:55.322Z,98571.56
2022-09-12T21:28:22.373Z,98571.75
2022-09-12T21:30:50.431Z,98572.41
2022-09-12T21:33:18.993Z,98574.19
2022-09-12T21:35:47.378Z,98572.41
2022-09-12T21:38:18.649Z,98571.47
2022-09-12T21:40:46.400Z,98577.59
2022-09-12T21:43:14.134Z,98570.78
2022-09-12T21:45:41.269Z,98571.75
2022-09-12T21:48:08.065Z,98574.28
2022-09-12T21:50:35.204Z,98572.47
2022-09-12T21:53:02.388Z,98568.06
2022-09-12T21:55:29.269Z,98566.34
2022-09-12T21:57:56.293Z,98570.78
2022-09-12T22:00:24.000Z,98562.88
2022-09-12T22:02:51.068Z,98567.13
2022-09-12T22:05:24.744Z,98567.19
2022-09-12T22:07:52.340Z,98568.06
2022-09-12T22:10:19.165Z,98567.13
2022-09-12T22:12:46.520Z,98565.44
2022-09-12T22:15:38.776Z,98568.06
2022-09-12T22:18:01.021Z,98563.56
2022-09-12T22:20:28.222Z,98566.28
2022-09-12T22:23:13.583Z,98565.44
2022-09-12T22:25:40.730Z,98562.78
2022-09-12T22:28:07.690Z,98565.44
2022-09-12T22:30:34.484Z,98561.19
2022-09-12T22:33:01.700Z,98564.66
2022-09-12T22:35:28.587Z,98567.47
2022-09-12T22:37:55.754Z,98566.63
2022-09-12T22:40:22.643Z,98568.50
2022-09-12T22:42:52.659Z,98569.34
2022-09-12T22:45:20.085Z,98568.41
2022-09-12T22:47:47.285Z,98570.09
2022-09-12T22:50:14.723Z,98568.34
2022-09-12T22:52:41.982Z,98568.34
2022-09-12T22:55:09.871Z,98572.59
2022-09-12T22:57:37.465Z,98563.97
2022-09-12T23:00:08.134Z,98565.69
2022-09-12T23:02:35.322Z,98564.75
2022-09-12T23:05:02.817Z,98557.75
2022-09-12T23:07:29.961Z,98553.31
2022-09-12T23:09:57.045Z,98558.69
2022-09-12T23:12:24.322Z,98557.84
2022-09-12T23:14:51.214Z,98557.06
2022-09-12T23:17:18.329Z,98554.69
2022-09-12T23:19:45.568Z,98567.06
2022-09-12T23:22:12.549Z,98557.34
2022-09-12T23:24:39.607Z,98551.28
2022-09-12T23:27:06.516Z,98545.25
2022-09-12T23:29:35.437Z,98541.94
2022-09-12T23:32:04.366Z,98549.09
2022-09-12T23:34:31.180Z,98545.78
2022-09-12T23:36:57.984Z,98541.53
2022-09-12T23:39:25.582Z,98543.22
2022-09-12T23:41:52.484Z,98544.16
2022-09-12T23:44:19.271Z,98546.88
2022-09-12T23:46:46.355Z,98538.19
2022-09-12T23:49:13.241Z,98539.16
2022-09-12T23:51:40.158Z,98537.34
2022-09-12T23:54:07.238Z,98535.75
2022-09-12T23:56:34.359Z,98537.53
2022-09-12T23:59:01.219Z,98531.38
